createdAt,value
2022-09-11T00:01:23.260Z,18.80
2022-09-11T00:03:14.087Z,19.17
2022-09-11T00:05:05.278Z,19.10
2022-09-11T00:06:56.058Z,17.92
2022-09-11T00:08:47.265Z,18.80
2022-09-11T00:10:38.713Z,18.08
2022-09-11T00:12:29.460Z,19.92
2022-09-11T00:14:19.637Z,19.85
2022-09-11T00:16:19.234Z,19.50
2022-09-11T00:18:11.406Z,20.25
2022-09-11T00:20:01.943Z,20.38
2022-09-11T00:21:52.366Z,21.08
2022-09-11T00:23:42.947Z,20.77
2022-09-11T00:25:34.388Z,23.05
2022-09-11T00:27:25.371Z,23.08
2022-09-11T00:29:15.679Z,23.00
2022-09-11T00:31:08.098Z,19.98
2022-09-11T00:32:59.922Z,20.85
2022-09-11T00:34:50.582Z,20.55
2022-09-11T00:36:41.145Z,19.35
2022-09-11T00:38:33.123Z,19.52
2022-09-11T00:40:24.890Z,20.23
2022-09-11T00:42:15.856Z,20.92
2022-09-11T00:44:07.687Z,20.45
2022-09-11T00:46:01.424Z,20.52
2022-09-11T00:47:54.155Z,20.38
2022-09-11T00:49:47.841Z,21.48
2022-09-11T00:51:38.809Z,22.60
2022-09-11T00:53:30.239Z,21.63
2022-09-11T00:55:22.218Z,21.00
2022-09-11T00:57:13.001Z,20.52
2022-09-11T00:59:04.375Z,22.00
2022-09-11T01:00:56.520Z,20.88
2022-09-11T01:02:48.517Z,19.45
2022-09-11T01:04:39.812Z,19.95
2022-09-11T01:06:32.394Z,20.67
2022-09-11T01:08:22.804Z,20.40
2022-09-11T01:10:13.306Z,19.85
2022-09-11T01:12:07.059Z,18.90
2022-09-11T01:14:04.153Z,20.30
2022-09-11T01:15:59.564Z,19.92
2022-09-11T01:17:55.801Z,20.02
2022-09-11T01:20:09.751Z,19.63
2022-09-11T01:22:26.170Z,18.55
2022-09-11T01:24:23.447Z,19.73
2022-09-11T01:26:33.437Z,18.70
2022-09-11T01:28:29.592Z,20.33
2022-09-11T01:30:21.407Z,18.38
2022-09-11T01:32:19.112Z,20.35
2022-09-11T01:34:12.166Z,20.85
2022-09-11T01:36:05.060Z,18.83
2022-09-11T01:37:59.786Z,19.98
2022-09-11T01:39:54.741Z,19.92
2022-09-11T01:41:48.048Z,19.95
2022-09-11T01:43:42.286Z,19.30
2022-09-11T01:45:34.318Z,19.08
2022-09-11T01:49:16.977Z,22.48
2022-09-11T01:51:09.864Z,18.58
2022-09-11T01:53:03.500Z,18.35
2022-09-11T01:54:59.413Z,17.85
2022-09-11T01:56:52.627Z,17.98
2022-09-11T01:58:45.701Z,18.58
2022-09-11T02:00:37.676Z,20.98
2022-09-11T02:02:31.006Z,20.48
2022-09-11T02:04:23.848Z,19.98
2022-09-11T02:06:18.292Z,18.98
2022-09-11T02:08:10.710Z,18.48
2022-09-11T02:10:06.077Z,19.67
2022-09-11T02:11:57.921Z,19.08
2022-09-11T02:13:55.270Z,19.30
2022-09-11T02:15:49.596Z,20.45
2022-09-11T02:17:46.221Z,20.63
2022-09-11T02:19:36.773Z,19.70
2022-09-11T02:21:27.738Z,21.65
2022-09-11T02:23:18.112Z,18.33
2022-09-11T02:25:09.183Z,17.92
2022-09-11T02:27:03.050Z,17.98
2022-09-11T02:28:55.099Z,17.30
2022-09-11T02:32:37.070Z,19.30
2022-09-11T02:34:31.408Z,17.90
2022-09-11T02:36:36.491Z,17.60
2022-09-11T02:38:30.460Z,19.73
2022-09-11T02:40:34.350Z,17.80
2022-09-11T02:42:32.775Z,18.00
2022-09-11T02:44:28.823Z,20.08
2022-09-11T02:46:46.255Z,20.23
2022-09-11T02:48:44.819Z,19.27
2022-09-11T02:50:41.069Z,19.27
2022-09-11T02:52:39.173Z,18.92
2022-09-11T02:54:35.039Z,19.48
2022-09-11T02:56:31.018Z,18.73
2022-09-11T02:58:24.412Z,18.33
2022-09-11T03:00:16.642Z,18.70
2022-09-11T03:04:00.135Z,19.23
2022-09-11T03:05:51.099Z,20.85
2022-09-11T03:07:41.897Z,20.50
2022-09-11T03:09:32.302Z,19.85
2022-09-11T03:11:23.696Z,22.20
2022-09-11T03:13:14.097Z,20.98
2022-09-11T03:15:05.756Z,20.90
2022-09-11T03:16:57.922Z,19.75
2022-09-11T03:20:38.987Z,21.38
2022-09-11T03:22:29.362Z,21.15
2022-09-11T03:24:19.721Z,21.52
2022-09-11T03:26:10.259Z,21.27
2022-09-11T03:28:00.603Z,20.65
2022-09-11T03:29:51.037Z,21.40
2022-09-11T03:31:41.329Z,20.63
2022-09-11T03:33:33.402Z,18.48
2022-09-11T03:35:23.873Z,22.23
2022-09-11T03:37:14.558Z,22.30
2022-09-11T03:39:05.715Z,21.25
2022-09-11T03:40:56.055Z,20.77
2022-09-11T03:42:46.463Z,21.73
2022-09-11T03:44:36.947Z,19.98
2022-09-11T03:46:27.417Z,19.20
2022-09-11T03:48:18.409Z,19.95
2022-09-11T03:50:11.032Z,20.95
2022-09-11T03:52:01.715Z,18.50
2022-09-11T03:53:52.105Z,20.17
2022-09-11T03:55:42.898Z,20.35
2022-09-11T03:57:33.765Z,19.30
2022-09-11T03:59:24.181Z,20.48
2022-09-11T04:01:15.801Z,19.67
2022-09-11T04:03:06.496Z,20.25
2022-09-11T04:04:57.067Z,18.00
2022-09-11T04:06:48.725Z,19.17
2022-09-11T04:08:40.324Z,19.65
2022-09-11T04:10:32.228Z,18.80
2022-09-11T04:12:23.028Z,20.02
2022-09-11T04:14:13.650Z,20.23
2022-09-11T04:16:05.912Z,19.80
2022-09-11T04:17:56.244Z,22.45
2022-09-11T04:19:46.715Z,20.13
2022-09-11T04:21:37.371Z,19.23
2022-09-11T04:23:28.957Z,20.33
2022-09-11T04:25:19.919Z,19.08
2022-09-11T04:27:10.213Z,19.67
2022-09-11T04:29:00.629Z,20.35
2022-09-11T04:30:51.202Z,21.20
2022-09-11T04:32:41.620Z,19.90
2022-09-11T04:34:32.199Z,20.05
2022-09-11T04:36:23.210Z,19.70
2022-09-11T04:38:13.921Z,20.95
2022-09-11T04:40:06.788Z,21.15
2022-09-11T04:41:57.459Z,19.77
2022-09-11T04:43:47.639Z,19.77
2022-09-11T04:45:38.074Z,20.15
2022-09-11T04:47:28.748Z,23.02
2022-09-11T04:49:19.078Z,21.20
2022-09-11T04:51:09.422Z,21.75
2022-09-11T04:53:00.012Z,22.25
2022-09-11T04:54:50.312Z,21.25
2022-09-11T04:56:41.985Z,20.90
2022-09-11T04:58:32.729Z,20.90
2022-09-11T05:00:23.014Z,21.52
2022-09-11T05:02:13.673Z,21.95
2022-09-11T05:04:04.158Z,20.65
2022-09-11T05:05:54.815Z,19.75
2022-09-11T05:07:44.990Z,20.80
2022-09-11T05:09:35.472Z,20.75
2022-09-11T05:11:25.661Z,21.50
2022-09-11T05:13:17.973Z,24.30
2022-09-11T05:15:09.570Z,23.73
2022-09-11T05:16:59.946Z,21.85
2022-09-11T05:18:51.550Z,23.90
2022-09-11T05:20:42.022Z,23.50
2022-09-11T05:22:32.323Z,23.13
2022-09-11T05:24:22.550Z,20.90
2022-09-11T05:26:15.221Z,22.55
2022-09-11T05:28:05.432Z,22.55
2022-09-11T05:29:57.316Z,22.73
2022-09-11T05:31:47.978Z,24.42
2022-09-11T05:33:38.314Z,24.75
2022-09-11T05:35:32.250Z,27.40
2022-09-11T05:37:23.227Z,28.13
2022-09-11T05:39:13.960Z,26.35
2022-09-11T05:41:05.779Z,25.55
2022-09-11T05:42:56.120Z,25.55
2022-09-11T05:44:46.436Z,25.08
2022-09-11T05:46:38.352Z,24.92
2022-09-11T05:48:29.205Z,25.95
2022-09-11T05:50:20.380Z,27.37
2022-09-11T05:52:11.086Z,25.23
2022-09-11T05:54:01.643Z,29.08
2022-09-11T05:55:52.114Z,25.45
2022-09-11T05:57:42.644Z,25.65
2022-09-11T05:59:33.252Z,25.75
2022-09-11T06:01:25.451Z,27.90
2022-09-11T06:03:18.253Z,26.00
2022-09-11T06:05:09.423Z,25.23
2022-09-11T06:06:59.840Z,28.63
2022-09-11T06:08:50.377Z,25.00
2022-09-11T06:10:45.143Z,24.42
2022-09-11T06:12:35.654Z,25.48
2022-09-11T06:14:26.095Z,25.17
2022-09-11T06:16:18.806Z,25.45
2022-09-11T06:18:09.425Z,25.35
2022-09-11T06:20:01.901Z,26.48
2022-09-11T06:21:52.378Z,27.27
2022-09-11T06:23:43.107Z,27.05
2022-09-11T06:25:33.748Z,29.00
2022-09-11T06:27:23.995Z,26.02
2022-09-11T06:29:14.755Z,25.88
2022-09-11T06:31:06.289Z,25.23
2022-09-11T06:32:56.738Z,26.98
2022-09-11T06:34:47.112Z,26.83
2022-09-11T06:36:39.247Z,28.40
2022-09-11T06:38:30.855Z,29.48
2022-09-11T06:40:21.424Z,30.43
2022-09-11T06:42:11.670Z,29.63
2022-09-11T06:44:02.576Z,32.58
2022-09-11T06:45:53.222Z,34.50
2022-09-11T06:47:43.780Z,34.42
2022-09-11T06:49:34.310Z,35.78
2022-09-11T06:51:25.007Z,36.65
2022-09-11T06:53:16.588Z,36.67
2022-09-11T06:55:07.354Z,37.92
2022-09-11T06:56:57.916Z,37.17
2022-09-11T06:58:48.252Z,38.55
2022-09-11T07:00:38.534Z,38.15
2022-09-11T07:02:28.876Z,37.03
2022-09-11T07:04:19.178Z,36.45
2022-09-11T07:06:09.845Z,35.13
2022-09-11T07:08:00.617Z,35.97
2022-09-11T07:09:52.551Z,36.20
2022-09-11T07:11:43.267Z,34.60
2022-09-11T07:13:37.353Z,34.08
2022-09-11T07:15:27.991Z,36.25
2022-09-11T07:17:18.363Z,34.75
2022-09-11T07:19:08.930Z,34.88
2022-09-11T07:20:59.338Z,35.20
2022-09-11T07:22:50.087Z,31.13
2022-09-11T07:24:40.528Z,31.20
2022-09-11T07:26:32.384Z,28.65
2022-09-11T07:28:22.981Z,27.10
2022-09-11T07:30:13.696Z,24.23
2022-09-11T07:32:04.171Z,26.67
2022-09-11T07:33:54.498Z,26.40
2022-09-11T07:35:45.310Z,26.58
2022-09-11T07:37:36.061Z,26.35
2022-09-11T07:39:26.524Z,26.60
2022-09-11T07:41:19.714Z,26.75
2022-09-11T07:43:11.523Z,23.83
2022-09-11T07:45:01.842Z,24.45
2022-09-11T07:46:52.338Z,26.05
2022-09-11T07:48:43.077Z,23.90
2022-09-11T07:50:33.326Z,25.33
2022-09-11T07:52:24.001Z,23.67
2022-09-11T07:54:14.665Z,22.98
2022-09-11T07:56:07.152Z,21.10
2022-09-11T07:57:58.143Z,18.50
2022-09-11T07:59:50.106Z,16.42
2022-09-11T08:01:40.875Z,17.67
2022-09-11T08:03:31.141Z,16.63
2022-09-11T08:05:21.275Z,19.02
2022-09-11T08:07:11.897Z,20.45
2022-09-11T08:09:04.175Z,19.38
2022-09-11T08:10:54.967Z,19.05
2022-09-11T08:12:46.558Z,22.75
2022-09-11T08:14:37.372Z,22.42
2022-09-11T08:16:29.362Z,22.38
2022-09-11T08:18:20.309Z,26.27
2022-09-11T08:20:10.697Z,24.45
2022-09-11T08:22:01.147Z,17.67
2022-09-11T08:23:51.945Z,18.27
2022-09-11T08:25:43.042Z,16.58
2022-09-11T08:27:33.433Z,16.55
2022-09-11T08:29:24.182Z,20.13
2022-09-11T08:31:14.762Z,18.55
2022-09-11T08:33:06.722Z,22.48
2022-09-11T08:34:57.155Z,20.23
2022-09-11T08:36:47.780Z,15.48
2022-09-11T08:38:38.572Z,16.55
2022-09-11T08:40:29.359Z,17.38
2022-09-11T08:42:19.670Z,16.98
2022-09-11T08:44:16.922Z,15.35
2022-09-11T08:46:08.775Z,13.18
2022-09-11T08:49:57.049Z,11.23
2022-09-11T08:51:48.543Z,9.63
2022-09-11T08:53:39.206Z,7.40
2022-09-11T08:55:33.623Z,6.10
2022-09-11T08:57:42.419Z,5.43
2022-09-11T08:59:41.823Z,6.13
2022-09-11T09:01:39.093Z,6.00
2022-09-11T09:03:52.046Z,5.30
2022-09-11T09:05:50.428Z,4.97
2022-09-11T09:07:52.050Z,5.22
2022-09-11T09:09:48.579Z,5.45
2022-09-11T09:11:45.306Z,5.63
2022-09-11T09:13:52.585Z,4.97
2022-09-11T09:15:49.575Z,5.78
2022-09-11T09:17:42.429Z,6.57
2022-09-11T09:19:35.362Z,5.32
2022-09-11T09:21:30.197Z,5.50
2022-09-11T09:23:23.317Z,4.75
2022-09-11T09:25:15.745Z,5.82
2022-09-11T09:28:59.460Z,5.38
2022-09-11T09:30:51.765Z,6.22
2022-09-11T09:32:45.726Z,6.13
2022-09-11T09:34:37.419Z,6.40
2022-09-11T09:36:31.228Z,5.50
2022-09-11T09:38:26.881Z,5.88
2022-09-11T09:40:18.593Z,5.03
2022-09-11T09:42:15.658Z,5.57
2022-09-11T09:44:09.701Z,4.72
2022-09-11T09:46:08.899Z,5.00
2022-09-11T09:47:59.263Z,6.47
2022-09-11T09:49:50.331Z,5.93
2022-09-11T09:51:42.233Z,5.18
2022-09-11T09:53:35.918Z,5.30
2022-09-11T09:55:26.596Z,6.60
2022-09-11T09:57:17.002Z,6.38
2022-09-11T09:59:14.835Z,5.57
2022-09-11T10:01:07.943Z,6.45
2022-09-11T10:02:58.810Z,5.68
2022-09-11T10:05:05.978Z,6.78
2022-09-11T10:07:08.427Z,5.13
2022-09-11T10:09:03.300Z,4.13
2022-09-11T10:10:55.694Z,4.80
2022-09-11T10:14:56.731Z,5.20
2022-09-11T10:16:48.156Z,5.68
2022-09-11T10:18:41.023Z,5.10
2022-09-11T10:20:31.297Z,5.45
2022-09-11T10:22:25.824Z,5.35
2022-09-11T10:24:22.197Z,5.80
2022-09-11T10:26:16.211Z,6.43
2022-09-11T10:28:11.353Z,5.78
2022-09-11T10:30:02.361Z,5.78
2022-09-11T10:31:54.605Z,5.03
2022-09-11T10:35:36.839Z,4.50
2022-09-11T10:37:29.940Z,5.55
2022-09-11T10:39:22.222Z,5.60
2022-09-11T10:41:16.682Z,5.40
2022-09-11T10:43:19.131Z,5.45
2022-09-11T10:45:14.562Z,4.85
2022-09-11T10:47:12.319Z,5.20
2022-09-11T10:49:23.818Z,5.90
2022-09-11T10:51:14.334Z,5.43
2022-09-11T10:53:15.438Z,4.70
2022-09-11T10:55:08.581Z,6.68
2022-09-11T10:57:08.073Z,4.63
2022-09-11T10:59:01.419Z,4.05
2022-09-11T11:00:52.030Z,4.10
2022-09-11T11:02:44.737Z,5.10
2022-09-11T11:04:35.384Z,4.45
2022-09-11T11:06:36.628Z,4.20
2022-09-11T11:08:55.692Z,3.75
2022-09-11T11:10:56.913Z,3.38
2022-09-11T11:12:57.411Z,5.53
2022-09-11T11:15:05.385Z,4.30
2022-09-11T11:17:01.968Z,4.15
2022-09-11T11:19:00.195Z,3.60
2022-09-11T11:20:59.018Z,3.95
2022-09-11T11:23:17.709Z,4.28
2022-09-11T11:25:17.073Z,3.72
2022-09-11T11:27:28.584Z,3.90
2022-09-11T11:29:31.551Z,4.63
2022-09-11T11:31:31.485Z,4.10
2022-09-11T11:33:48.175Z,4.15
2022-09-11T11:35:45.124Z,4.20
2022-09-11T11:37:39.728Z,3.50
2022-09-11T11:39:33.858Z,3.40
2022-09-11T11:41:28.012Z,3.65
2022-09-11T11:43:22.014Z,3.47
2022-09-11T11:45:19.873Z,4.55
2022-09-11T11:47:10.936Z,3.10
2022-09-11T11:49:04.707Z,3.63
2022-09-11T11:50:59.033Z,3.13
2022-09-11T11:52:56.606Z,3.88
2022-09-11T11:54:50.871Z,3.63
2022-09-11T11:56:45.990Z,3.17
2022-09-11T11:58:42.908Z,3.10
2022-09-11T12:00:37.490Z,3.70
2022-09-11T12:02:30.856Z,3.58
2022-09-11T12:04:29.764Z,3.47
2022-09-11T12:06:20.545Z,3.22
2022-09-11T12:08:13.236Z,3.08
2022-09-11T12:10:06.640Z,2.85
2022-09-11T12:12:04.555Z,2.88
2022-09-11T12:13:55.629Z,2.42
2022-09-11T12:16:11.525Z,2.80
2022-09-11T12:18:04.407Z,3.00
2022-09-11T12:20:15.445Z,2.70
2022-09-11T12:22:11.338Z,3.13
2022-09-11T12:24:18.804Z,3.10
2022-09-11T12:26:17.884Z,3.00
2022-09-11T12:28:21.558Z,2.60
2022-09-11T12:30:22.377Z,2.60
2022-09-11T12:32:42.522Z,4.28
2022-09-11T12:34:58.597Z,3.60
2022-09-11T12:36:52.055Z,2.83
2022-09-11T12:38:45.928Z,3.03
2022-09-11T12:40:39.287Z,3.13
2022-09-11T12:42:46.892Z,2.83
2022-09-11T12:44:57.260Z,2.60
2022-09-11T12:47:17.093Z,2.80
2022-09-11T12:49:22.157Z,2.70
2022-09-11T12:51:20.575Z,2.45
2022-09-11T12:53:16.977Z,2.40
2022-09-11T12:55:29.950Z,2.53
2022-09-11T12:57:25.411Z,2.53
2022-09-11T12:59:22.510Z,2.50
2022-09-11T13:01:18.060Z,2.58
2022-09-11T13:03:18.011Z,2.10
2022-09-11T13:05:17.064Z,2.15
2022-09-11T13:07:07.765Z,1.85
2022-09-11T13:09:00.044Z,1.73
2022-09-11T13:10:51.071Z,2.30
2022-09-11T13:12:52.207Z,2.20
2022-09-11T13:14:47.987Z,2.58
2022-09-11T13:16:44.754Z,2.28
2022-09-11T13:18:35.125Z,2.28
2022-09-11T13:20:25.582Z,2.08
2022-09-11T13:22:24.626Z,2.60
2022-09-11T13:24:22.867Z,2.63
2022-09-11T13:26:18.572Z,2.03
2022-09-11T13:28:11.514Z,2.00
2022-09-11T13:30:02.014Z,2.38
2022-09-11T13:31:54.546Z,2.75
2022-09-11T13:33:49.132Z,2.33
2022-09-11T13:35:44.227Z,2.30
2022-09-11T13:37:37.964Z,1.90
2022-09-11T13:39:28.664Z,2.08
2022-09-11T13:41:22.704Z,2.08
2022-09-11T13:43:15.427Z,2.10
2022-09-11T13:45:07.561Z,2.15
2022-09-11T13:46:59.779Z,2.10
2022-09-11T13:48:51.060Z,2.20
2022-09-11T13:50:41.539Z,2.17
2022-09-11T13:52:34.042Z,2.08
2022-09-11T13:54:28.298Z,1.98
2022-09-11T13:56:35.380Z,1.98
2022-09-11T13:58:29.295Z,2.20
2022-09-11T14:00:39.223Z,2.13
2022-09-11T14:02:51.907Z,2.15
2022-09-11T14:04:43.110Z,2.55
2022-09-11T14:06:33.834Z,2.13
2022-09-11T14:08:34.803Z,2.42
2022-09-11T14:10:28.491Z,2.65
2022-09-11T14:12:19.127Z,2.55
2022-09-11T14:14:12.180Z,3.00
2022-09-11T14:16:05.873Z,2.78
2022-09-11T14:18:01.385Z,2.67
2022-09-11T14:19:55.687Z,2.25
2022-09-11T14:21:50.320Z,2.80
2022-09-11T14:23:42.264Z,2.88
2022-09-11T14:25:32.549Z,2.67
2022-09-11T14:27:37.392Z,2.58
2022-09-11T14:29:29.076Z,2.40
2022-09-11T14:31:37.625Z,2.65
2022-09-11T14:33:29.546Z,2.90
2022-09-11T14:35:20.110Z,2.65
2022-09-11T14:37:12.273Z,3.10
2022-09-11T14:39:03.181Z,2.53
2022-09-11T14:40:56.427Z,2.50
2022-09-11T14:42:47.391Z,2.08
2022-09-11T14:44:39.082Z,2.40
2022-09-11T14:46:29.784Z,2.53
2022-09-11T14:48:21.170Z,2.90
2022-09-11T14:50:13.282Z,2.88
2022-09-11T14:52:03.765Z,2.95
2022-09-11T14:53:54.058Z,2.70
2022-09-11T14:55:44.829Z,3.20
2022-09-11T14:57:35.445Z,4.85
2022-09-11T14:59:26.415Z,3.63
2022-09-11T15:01:16.698Z,3.10
2022-09-11T15:03:07.151Z,2.58
2022-09-11T15:04:58.374Z,2.88
2022-09-11T15:06:52.284Z,3.58
2022-09-11T15:08:43.026Z,2.70
2022-09-11T15:10:33.536Z,2.78
2022-09-11T15:12:23.913Z,2.95
2022-09-11T15:14:23.681Z,2.80
2022-09-11T15:16:24.723Z,2.60
2022-09-11T15:18:15.111Z,3.03
2022-09-11T15:20:07.187Z,2.85
2022-09-11T15:21:59.145Z,2.85
2022-09-11T15:23:49.866Z,2.60
2022-09-11T15:25:40.101Z,2.65
2022-09-11T15:27:30.615Z,2.80
2022-09-11T15:29:21.454Z,2.65
2022-09-11T15:31:11.577Z,3.10
2022-09-11T15:33:02.049Z,3.22
2022-09-11T15:34:52.279Z,2.63
2022-09-11T15:36:43.412Z,2.95
2022-09-11T15:38:35.485Z,2.65
2022-09-11T15:40:25.930Z,2.95
2022-09-11T15:42:16.323Z,3.20
2022-09-11T15:44:09.628Z,3.17
2022-09-11T15:45:59.910Z,2.90
2022-09-11T15:47:50.362Z,3.40
2022-09-11T15:49:42.575Z,2.75
2022-09-11T15:51:33.338Z,2.22
2022-09-11T15:53:23.641Z,3.65
2022-09-11T15:55:15.475Z,2.80
2022-09-11T15:57:06.261Z,2.33
2022-09-11T15:58:57.678Z,2.20
2022-09-11T16:00:47.964Z,2.53
2022-09-11T16:02:38.349Z,2.40
2022-09-11T16:04:29.597Z,2.55
2022-09-11T16:06:21.398Z,2.13
2022-09-11T16:08:11.835Z,2.50
2022-09-11T16:10:02.516Z,2.35
2022-09-11T16:11:55.227Z,2.25
2022-09-11T16:15:37.802Z,2.42
2022-09-11T16:17:28.390Z,2.50
2022-09-11T16:19:21.244Z,2.95
2022-09-11T16:21:12.620Z,3.13
2022-09-11T16:23:02.913Z,2.47
2022-09-11T16:24:53.528Z,2.30
2022-09-11T16:26:44.683Z,2.28
2022-09-11T16:28:38.184Z,2.30
2022-09-11T16:30:47.425Z,2.58
2022-09-11T16:32:39.408Z,2.40
2022-09-11T16:34:29.741Z,2.50
2022-09-11T16:36:20.877Z,2.30
2022-09-11T16:38:11.360Z,2.67
2022-09-11T16:40:02.548Z,2.35
2022-09-11T16:41:52.738Z,2.58
2022-09-11T16:43:46.121Z,2.60
2022-09-11T16:45:36.784Z,2.25
2022-09-11T16:47:27.097Z,2.28
2022-09-11T16:49:18.904Z,2.40
2022-09-11T16:51:09.554Z,2.17
2022-09-11T16:53:00.130Z,2.22
2022-09-11T16:54:50.766Z,2.45
2022-09-11T16:56:45.706Z,2.22
2022-09-11T16:58:36.514Z,2.30
2022-09-11T17:00:28.381Z,2.10
2022-09-11T17:02:18.543Z,2.35
2022-09-11T17:04:08.798Z,2.67
2022-09-11T17:05:59.198Z,2.40
2022-09-11T17:07:49.590Z,2.33
2022-09-11T17:09:40.039Z,2.88
2022-09-11T17:11:31.748Z,2.63
2022-09-11T17:13:22.502Z,2.50
2022-09-11T17:15:12.787Z,2.60
2022-09-11T17:17:04.578Z,2.63
2022-09-11T17:18:56.135Z,3.00
2022-09-11T17:20:46.430Z,3.10
2022-09-11T17:22:37.015Z,2.97
2022-09-11T17:24:27.436Z,2.70
2022-09-11T17:26:17.624Z,3.15
2022-09-11T17:28:08.122Z,2.47
2022-09-11T17:29:58.827Z,4.43
2022-09-11T17:31:49.111Z,3.55
2022-09-11T17:33:41.731Z,3.70
2022-09-11T17:37:22.504Z,3.25
2022-09-11T17:39:12.713Z,3.53
2022-09-11T17:41:04.314Z,3.08
2022-09-11T17:42:54.774Z,2.60
2022-09-11T17:44:45.101Z,3.70
2022-09-11T17:46:35.436Z,3.63
2022-09-11T17:48:25.787Z,3.47
2022-09-11T17:50:17.627Z,3.30
2022-09-11T17:52:08.208Z,2.75
2022-09-11T17:53:59.099Z,2.55
2022-09-11T17:55:49.728Z,2.80
2022-09-11T17:57:40.115Z,2.38
2022-09-11T17:59:30.328Z,2.53
2022-09-11T18:01:21.602Z,3.17
2022-09-11T18:03:12.203Z,3.35
2022-09-11T18:05:02.501Z,2.85
2022-09-11T18:06:54.345Z,2.65
2022-09-11T18:08:44.580Z,3.13
2022-09-11T18:10:35.301Z,2.92
2022-09-11T18:12:25.570Z,3.33
2022-09-11T18:14:16.732Z,3.05
2022-09-11T18:16:11.268Z,2.67
2022-09-11T18:18:02.200Z,2.95
2022-09-11T18:19:52.421Z,3.40
2022-09-11T18:21:46.633Z,3.55
2022-09-11T18:23:42.796Z,4.22
2022-09-11T18:25:36.828Z,3.53
2022-09-11T18:27:27.326Z,3.63
2022-09-11T18:29:20.037Z,3.90
2022-09-11T18:31:11.443Z,4.10
2022-09-11T18:33:01.998Z,3.85
2022-09-11T18:34:52.435Z,4.38
2022-09-11T18:36:43.206Z,4.90
2022-09-11T18:38:33.659Z,5.07
2022-09-11T18:40:25.345Z,5.68
2022-09-11T18:42:15.587Z,5.20
2022-09-11T18:44:08.360Z,6.00
2022-09-11T18:46:01.987Z,6.00
2022-09-11T18:47:52.899Z,5.97
2022-09-11T18:49:43.694Z,6.30
2022-09-11T18:51:34.809Z,7.03
2022-09-11T18:53:25.168Z,6.80
2022-09-11T18:55:16.175Z,7.20
2022-09-11T18:57:08.123Z,7.00
2022-09-11T18:59:00.216Z,7.55
2022-09-11T19:02:41.129Z,8.50
2022-09-11T19:04:31.510Z,8.20
2022-09-11T19:06:23.556Z,7.18
2022-09-11T19:08:14.428Z,6.88
2022-09-11T19:10:06.685Z,7.35
2022-09-11T19:11:57.047Z,7.28
2022-09-11T19:13:49.872Z,6.72
2022-09-11T19:15:40.450Z,6.45
2022-09-11T19:17:30.904Z,7.28
2022-09-11T19:19:21.540Z,7.05
2022-09-11T19:21:13.917Z,7.78
2022-09-11T19:23:04.606Z,6.88
2022-09-11T19:24:54.845Z,8.23
2022-09-11T19:26:45.781Z,7.85
2022-09-11T19:28:38.046Z,7.38
2022-09-11T19:30:30.120Z,7.15
2022-09-11T19:32:20.880Z,7.30
2022-09-11T19:34:12.520Z,7.85
2022-09-11T19:36:05.646Z,7.10
2022-09-11T19:37:56.005Z,6.72
2022-09-11T19:39:47.036Z,6.80
2022-09-11T19:41:38.944Z,7.03
2022-09-11T19:45:26.107Z,6.53
2022-09-11T19:47:23.510Z,6.95
2022-09-11T19:49:14.321Z,6.32
2022-09-11T19:51:12.182Z,6.28
2022-09-11T19:53:09.154Z,6.25
2022-09-11T19:55:06.560Z,6.13
2022-09-11T19:57:00.350Z,6.68
2022-09-11T19:58:53.023Z,7.35
2022-09-11T20:00:45.180Z,6.85
2022-09-11T20:02:40.840Z,6.40
2022-09-11T20:04:36.456Z,6.13
2022-09-11T20:06:30.772Z,6.35
2022-09-11T20:08:21.836Z,6.63
2022-09-11T20:10:12.889Z,6.13
2022-09-11T20:12:06.429Z,6.80
2022-09-11T20:14:00.419Z,7.40
2022-09-11T20:15:55.560Z,6.03
2022-09-11T20:17:54.545Z,7.03
2022-09-11T20:19:52.398Z,7.47
2022-09-11T20:21:52.136Z,7.35
2022-09-11T20:23:45.255Z,8.23
2022-09-11T20:25:37.272Z,6.97
2022-09-11T20:27:31.789Z,7.97
2022-09-11T20:29:26.196Z,8.27
2022-09-11T20:31:24.111Z,7.75
2022-09-11T20:33:26.333Z,8.35
2022-09-11T20:35:22.457Z,8.57
2022-09-11T20:37:16.133Z,8.15
2022-09-11T20:39:11.493Z,9.07
2022-09-11T20:41:06.924Z,8.52
2022-09-11T20:43:01.844Z,8.18
2022-09-11T20:45:00.394Z,7.70
2022-09-11T20:46:56.654Z,8.90
2022-09-11T20:48:50.224Z,8.40
2022-09-11T20:50:45.859Z,8.75
2022-09-11T20:52:39.555Z,9.60
2022-09-11T20:54:30.560Z,9.20
2022-09-11T20:56:21.505Z,9.68
2022-09-11T20:58:17.800Z,8.80
2022-09-11T21:00:10.352Z,9.98
2022-09-11T21:02:01.129Z,10.15
2022-09-11T21:03:57.166Z,9.60
2022-09-11T21:05:48.362Z,9.60
2022-09-11T21:07:38.610Z,9.10
2022-09-11T21:09:29.392Z,10.18
2022-09-11T21:11:29.698Z,10.17
2022-09-11T21:13:21.332Z,8.93
2022-09-11T21:15:12.084Z,9.48
2022-09-11T21:17:03.856Z,9.45
2022-09-11T21:19:04.342Z,9.73
2022-09-11T21:20:56.773Z,10.10
2022-09-11T21:22:51.268Z,10.32
2022-09-11T21:24:41.713Z,10.80
2022-09-11T21:26:38.782Z,10.10
2022-09-11T21:28:33.968Z,10.75
2022-09-11T21:30:24.882Z,9.77
2022-09-11T21:32:15.593Z,10.07
2022-09-11T21:34:10.142Z,11.02
2022-09-11T21:36:02.057Z,11.98
2022-09-11T21:37:53.162Z,11.02
2022-09-11T21:39:45.728Z,12.25
2022-09-11T21:41:41.796Z,12.43
2022-09-11T21:43:33.597Z,11.30
2022-09-11T21:45:24.851Z,12.52
2022-09-11T21:47:18.687Z,13.98
2022-09-11T21:49:12.644Z,12.02
2022-09-11T21:51:14.193Z,14.10
2022-09-11T21:53:06.932Z,14.27
2022-09-11T21:56:47.593Z,17.52
2022-09-11T21:58:42.421Z,16.42
2022-09-11T22:00:42.754Z,15.82
2022-09-11T22:02:34.068Z,16.55
2022-09-11T22:04:26.132Z,15.95
2022-09-11T22:06:23.716Z,17.75
2022-09-11T22:08:19.429Z,17.95
2022-09-11T22:10:17.829Z,17.42
2022-09-11T22:12:16.619Z,18.20
2022-09-11T22:14:13.555Z,17.80
2022-09-11T22:16:07.337Z,16.63
2022-09-11T22:17:58.008Z,18.90
2022-09-11T22:19:49.741Z,19.02
2022-09-11T22:21:40.409Z,17.80
2022-09-11T22:23:31.768Z,16.48
2022-09-11T22:25:23.259Z,16.92
2022-09-11T22:27:17.430Z,17.35
2022-09-11T22:29:07.997Z,17.13
2022-09-11T22:30:59.180Z,17.05
2022-09-11T22:32:50.981Z,16.23
2022-09-11T22:34:46.753Z,16.85
2022-09-11T22:36:43.344Z,16.23
2022-09-11T22:38:37.172Z,16.63
2022-09-11T22:40:28.877Z,16.42
2022-09-11T22:42:21.092Z,15.18
2022-09-11T22:44:13.427Z,15.70
2022-09-11T22:46:04.562Z,15.98
2022-09-11T22:47:56.240Z,15.10
2022-09-11T22:49:48.731Z,14.95
2022-09-11T22:51:46.686Z,15.05
2022-09-11T22:53:41.194Z,14.75
2022-09-11T22:55:33.088Z,15.13
2022-09-11T22:57:29.202Z,16.17
2022-09-11T22:59:21.050Z,15.27
2022-09-11T23:01:17.617Z,14.98
2022-09-11T23:03:13.139Z,14.50
2022-09-11T23:05:06.901Z,15.05
2022-09-11T23:06:57.710Z,13.73
2022-09-11T23:08:50.454Z,14.63
2022-09-11T23:10:41.421Z,13.73
2022-09-11T23:12:32.643Z,14.27
2022-09-11T23:14:23.365Z,14.15
2022-09-11T23:16:15.201Z,13.63
2022-09-11T23:18:10.135Z,13.80
2022-09-11T23:20:01.992Z,13.63
2022-09-11T23:21:54.934Z,13.38
2022-09-11T23:23:54.334Z,13.23
2022-09-11T23:25:45.344Z,14.07
2022-09-11T23:27:43.011Z,14.10
2022-09-11T23:29:38.238Z,12.95
2022-09-11T23:31:31.062Z,13.60
2022-09-11T23:33:22.935Z,14.20
2022-09-11T23:35:14.572Z,13.70
2022-09-11T23:37:05.217Z,12.98
2022-09-11T23:38:57.560Z,13.50
2022-09-11T23:40:48.691Z,12.85
2022-09-11T23:42:40.479Z,13.77
2022-09-11T23:44:32.774Z,13.73
2022-09-11T23:46:25.296Z,14.10
2022-09-11T23:48:17.147Z,13.55
2022-09-11T23:50:10.282Z,13.50
2022-09-11T23:52:00.732Z,15.57
2022-09-11T23:53:54.808Z,13.82
2022-09-11T23:55:50.510Z,13.25
2022-09-11T23:57:41.054Z,13.65
2022-09-11T23:59:35.924Z,12.60
